Aérodrome :
LOGIN :

S'inscrire | Disclaimer

   EN    FR    IT 

 










Légende :    VFR   VFR Marginal   IFR   IFR Intensif   IFR Très Intensif
Visi : 
Plafond : 
>= 8 km
>= 3000ft
5 à 8 km
1000 à 3000 ft
1500m à 5 km
500 à 1000 ft
800 à 1500m
200 à 500 ft
< 800m
< 200 ft
Symboles :   Orages  Brouillard  Fortes neiges  Fortes précipitations  Vent > 20 kt
SIGMETs :   Divers  Orages  Givrage  Turbulence  Onde Orograph.  Cendres Volcan.






- Altitude de l'aérodrome : 124 ft
- Code IATA : AVN


LFMV - Avignon Caumont

DERNIER METAR :
  • 122100Z AUTO 30011KT CAVOK 09/01 Q1004

METARs EXPIRÉS :
  • 122030Z AUTO 30009KT CAVOK 09/02 Q1004 NOSIG
  • 122000Z AUTO 31010KT CAVOK 10/01 Q1004 NOSIG
  • 121930Z AUTO 31011KT CAVOK 09/02 Q1004 NOSIG
  • 121900Z AUTO 33015KT CAVOK 10/01 Q1004 TEMPO 32017G27KT
  • 121830Z AUTO 34011KT CAVOK 10/01 Q1004 TEMPO 32017G27KT

TAF AMD TAF LFMV
Valide du 12 à 16h jusqu'au 13 à 15h UTC


121616Z 1216/1315 34015KT CAVOK
TEMPO 1216/1220 32017G27KT
TEMPO 1309/1315 33023G33KT
ATIS : +33 4 90 84 32 84



MET'MAP, la Météo Aéronautique d'un coup d'oeil ! - Copyright ORBIFLY Décembre 2007 - Disclaimer

ORBIFLY MET'MAP TEAM :

Programmation & Développement : Alexandra Zaïnal
Conception & Développement : Baudouin d'Aumeries
Co-Programmation & Développement : Marc-Olivier Méhu
Soutien technique & logistique : Manuel Goepfert

Contact : metmap@orbifly.com




SOURCES & CREDITS :

   NOAA